createdAt,value
2022-12-03T00:02:13.738Z,-3.80
2022-12-03T00:04:40.576Z,-4.10
2022-12-03T00:07:07.324Z,-4.00
2022-12-03T00:09:34.073Z,-4.10
2022-12-03T00:12:00.862Z,-2.70
2022-12-03T00:14:27.639Z,-4.00
2022-12-03T00:16:54.502Z,-4.00
2022-12-03T00:19:21.287Z,-4.00
2022-12-03T00:21:48.057Z,-4.00
2022-12-03T00:24:14.882Z,-4.10
2022-12-03T00:26:41.634Z,-4.10
2022-12-03T00:29:08.400Z,-4.10
2022-12-03T00:31:35.314Z,-4.10
2022-12-03T00:34:02.082Z,-4.10
2022-12-03T00:36:28.833Z,-4.10
2022-12-03T00:38:55.606Z,-4.10
2022-12-03T00:41:22.338Z,-4.10
2022-12-03T00:43:49.054Z,-4.10
2022-12-03T00:46:19.861Z,-3.10
2022-12-03T00:48:48.204Z,-4.10
2022-12-03T00:51:15.135Z,-1.10
2022-12-03T00:53:41.876Z,-4.10
2022-12-03T00:56:08.996Z,-4.10
2022-12-03T00:58:36.031Z,-4.00
2022-12-03T01:01:02.753Z,-4.00
2022-12-03T01:03:29.510Z,-4.00
2022-12-03T01:05:56.337Z,-3.40
2022-12-03T01:08:23.223Z,-3.90
2022-12-03T01:10:50.018Z,-3.90
2022-12-03T01:13:16.800Z,-3.90
2022-12-03T01:15:43.748Z,-4.00
2022-12-03T01:18:10.592Z,-4.00
2022-12-03T01:20:38.670Z,-4.10
2022-12-03T01:23:05.426Z,-4.10
2022-12-03T01:25:32.280Z,-4.00
2022-12-03T01:27:59.015Z,-4.00
2022-12-03T01:30:25.768Z,-3.90
2022-12-03T01:32:52.522Z,-3.90
2022-12-03T01:35:19.370Z,-3.90
2022-12-03T01:37:46.166Z,-3.90
2022-12-03T01:40:22.433Z,-3.90
2022-12-03T01:42:49.219Z,-3.90
2022-12-03T01:45:22.710Z,-3.80
2022-12-03T01:47:49.556Z,-3.80
2022-12-03T01:50:16.263Z,-3.90
2022-12-03T01:52:43.501Z,-3.90
2022-12-03T01:55:15.025Z,-3.80
2022-12-03T01:57:52.687Z,-3.80
2022-12-03T02:00:20.877Z,-3.90
2022-12-03T02:02:52.670Z,-3.90
2022-12-03T02:05:20.999Z,-3.90
2022-12-03T02:07:48.059Z,-3.90
2022-12-03T02:10:16.138Z,-3.90
2022-12-03T02:12:50.627Z,-3.90
2022-12-03T02:15:17.386Z,-3.90
2022-12-03T02:17:44.313Z,-3.90
2022-12-03T02:20:11.882Z,-3.90
2022-12-03T02:22:38.518Z,-3.90
2022-12-03T02:25:08.124Z,-3.90
2022-12-03T02:27:35.048Z,-3.90
2022-12-03T02:30:01.876Z,-3.90
2022-12-03T02:32:28.746Z,-3.90
2022-12-03T02:34:55.961Z,-3.90
2022-12-03T02:37:25.494Z,-3.90
2022-12-03T02:39:53.847Z,-3.90
2022-12-03T02:42:36.679Z,-3.90
2022-12-03T02:45:06.523Z,-3.90
2022-12-03T02:47:35.371Z,-3.90
2022-12-03T02:50:02.503Z,-3.90
2022-12-03T02:52:29.660Z,-2.90
2022-12-03T02:54:56.534Z,-3.90
2022-12-03T02:57:23.348Z,-3.90
2022-12-03T02:59:50.467Z,-3.90
2022-12-03T03:02:17.439Z,-3.90
2022-12-03T03:04:44.613Z,-3.90
2022-12-03T03:07:11.436Z,-3.90
2022-12-03T03:09:38.329Z,-0.30
2022-12-03T03:12:05.254Z,-3.90
2022-12-03T03:14:32.407Z,-3.80
2022-12-03T03:16:59.451Z,-3.80
2022-12-03T03:19:26.284Z,-3.90
2022-12-03T03:21:53.551Z,-3.90
2022-12-03T03:24:21.160Z,-3.90
2022-12-03T03:26:48.119Z,-3.80
2022-12-03T03:29:15.074Z,-3.80
2022-12-03T03:31:42.897Z,-3.90
2022-12-03T03:34:09.873Z,-3.80
2022-12-03T03:36:38.429Z,-3.90
2022-12-03T03:39:05.803Z,-3.90
2022-12-03T03:41:32.869Z,-3.80
2022-12-03T03:43:59.792Z,-3.80
2022-12-03T03:46:29.501Z,-3.80
2022-12-03T03:48:56.596Z,-3.80
2022-12-03T03:51:23.524Z,-3.80
2022-12-03T03:53:50.533Z,-3.80
2022-12-03T03:56:18.748Z,-3.80
2022-12-03T03:58:45.592Z,-3.80
2022-12-03T04:01:13.314Z,-3.80
2022-12-03T04:03:40.204Z,-3.80
2022-12-03T04:06:07.222Z,-3.80
2022-12-03T04:08:33.925Z,-3.80
2022-12-03T04:11:19.109Z,-3.80
2022-12-03T04:13:45.867Z,-3.70
2022-12-03T04:16:12.651Z,-3.70
2022-12-03T04:18:45.145Z,-3.70
2022-12-03T04:21:31.609Z,-3.70
2022-12-03T04:23:58.415Z,-3.70
2022-12-03T04:26:43.541Z,-3.70
2022-12-03T04:29:10.445Z,-3.70
2022-12-03T04:31:55.836Z,-3.80
2022-12-03T04:34:41.338Z,-3.80
2022-12-03T04:37:08.458Z,-3.80
2022-12-03T04:39:35.612Z,-3.80
2022-12-03T04:42:02.957Z,-3.80
2022-12-03T04:44:38.784Z,-3.80
2022-12-03T04:47:16.196Z,-3.80
2022-12-03T04:49:46.830Z,-3.80
2022-12-03T04:52:14.411Z,-3.80
2022-12-03T04:54:41.506Z,-3.80
2022-12-03T04:57:08.921Z,-3.80
2022-12-03T04:59:36.053Z,-3.80
2022-12-03T05:02:03.345Z,-3.80
2022-12-03T05:04:30.109Z,-3.90
2022-12-03T05:06:56.823Z,-3.70
2022-12-03T05:09:23.732Z,-3.90
2022-12-03T05:11:50.555Z,-3.20
2022-12-03T05:14:17.483Z,-3.90
2022-12-03T05:16:44.301Z,-3.40
2022-12-03T05:19:11.127Z,-3.90
2022-12-03T05:21:37.920Z,-3.90
2022-12-03T05:24:04.843Z,-3.90
2022-12-03T05:26:31.589Z,-3.90
2022-12-03T05:28:58.478Z,-3.90
2022-12-03T05:31:25.370Z,-3.90
2022-12-03T05:33:52.295Z,-4.00
2022-12-03T05:36:19.041Z,-4.00
2022-12-03T05:38:45.769Z,-4.00
2022-12-03T05:41:31.157Z,-4.00
2022-12-03T05:43:57.914Z,-4.10
2022-12-03T05:46:24.758Z,-4.10
2022-12-03T05:48:51.512Z,-4.00
2022-12-03T05:51:18.270Z,-4.00
2022-12-03T05:53:45.056Z,-4.00
2022-12-03T05:56:11.777Z,-4.10
2022-12-03T05:58:38.470Z,-2.90
2022-12-03T06:01:05.300Z,-4.10
2022-12-03T06:03:32.500Z,-4.10
2022-12-03T06:05:59.483Z,-3.10
2022-12-03T06:08:26.435Z,-4.10
2022-12-03T06:10:53.292Z,-4.20
2022-12-03T06:13:20.123Z,-4.20
2022-12-03T06:15:47.097Z,-4.10
2022-12-03T06:18:14.142Z,-4.20
2022-12-03T06:20:40.901Z,-4.10
2022-12-03T06:23:07.687Z,-4.10
2022-12-03T06:25:34.631Z,-4.00
2022-12-03T06:28:01.439Z,-4.10
2022-12-03T06:30:28.196Z,-4.10
2022-12-03T06:32:55.130Z,-4.10
2022-12-03T06:35:24.265Z,-4.20
2022-12-03T06:37:50.985Z,-4.30
2022-12-03T06:40:17.981Z,-4.30
2022-12-03T06:42:44.806Z,-4.30
2022-12-03T06:45:11.965Z,-4.30
2022-12-03T06:47:38.788Z,-4.30
2022-12-03T06:50:06.416Z,-4.30
2022-12-03T06:52:33.231Z,-4.30
2022-12-03T06:55:00.040Z,-4.30
2022-12-03T06:57:26.875Z,-4.20
2022-12-03T06:59:53.870Z,-4.30
2022-12-03T07:02:20.771Z,-4.30
2022-12-03T07:04:47.761Z,-4.30
2022-12-03T07:07:14.618Z,-4.40
2022-12-03T07:09:41.369Z,-4.30
2022-12-03T07:12:08.272Z,-4.30
2022-12-03T07:14:35.166Z,-4.20
2022-12-03T07:17:02.051Z,-4.10
2022-12-03T07:19:32.497Z,-4.20
2022-12-03T07:22:15.651Z,-4.20
2022-12-03T07:24:42.684Z,-4.10
2022-12-03T07:27:09.501Z,-4.10
2022-12-03T07:29:36.265Z,-4.10
2022-12-03T07:32:03.032Z,-4.10
2022-12-03T07:34:29.840Z,-4.00
2022-12-03T07:36:56.759Z,-3.90
2022-12-03T07:39:23.589Z,-4.00
2022-12-03T07:41:50.377Z,-4.00
2022-12-03T07:44:17.249Z,-4.00
2022-12-03T07:46:44.026Z,-4.00
2022-12-03T07:49:12.233Z,-3.90
2022-12-03T07:51:39.048Z,-3.90
2022-12-03T07:54:05.910Z,-3.90
2022-12-03T07:56:32.721Z,-3.90
2022-12-03T07:58:59.502Z,-4.00
2022-12-03T08:01:26.414Z,-4.00
2022-12-03T08:03:53.376Z,-3.90
2022-12-03T08:06:20.148Z,-4.00
2022-12-03T08:08:46.885Z,-4.00
2022-12-03T08:11:16.807Z,-4.00
2022-12-03T08:13:45.805Z,-4.00
2022-12-03T08:16:15.995Z,-3.90
2022-12-03T08:18:45.852Z,-3.90
2022-12-03T08:21:13.769Z,-3.90
2022-12-03T08:23:40.799Z,-4.00
2022-12-03T08:26:34.084Z,-3.40
2022-12-03T08:29:01.086Z,-3.90
2022-12-03T08:31:33.241Z,-4.00
2022-12-03T08:34:15.069Z,-3.90
2022-12-03T08:36:41.838Z,-3.90
2022-12-03T08:39:14.815Z,-4.00
2022-12-03T08:42:00.201Z,-4.00
2022-12-03T08:44:28.372Z,-4.00
2022-12-03T08:46:58.523Z,-4.00
2022-12-03T08:49:25.254Z,-4.00
2022-12-03T08:51:55.925Z,-4.00
2022-12-03T08:54:23.372Z,-3.90
2022-12-03T08:56:50.147Z,-4.00
2022-12-03T08:59:26.037Z,-4.00
2022-12-03T09:01:55.891Z,-4.00
2022-12-03T09:04:22.768Z,-3.90
2022-12-03T09:06:50.287Z,-4.00
2022-12-03T09:09:17.086Z,-4.00
2022-12-03T09:11:44.341Z,-3.80
2022-12-03T09:14:16.741Z,-4.10
2022-12-03T09:16:45.203Z,-4.10
2022-12-03T09:19:12.078Z,-4.10
2022-12-03T09:21:38.887Z,-4.00
2022-12-03T09:24:05.810Z,-3.90
2022-12-03T09:26:32.602Z,-3.90
2022-12-03T09:28:59.355Z,-3.70
2022-12-03T09:31:26.225Z,-3.70
2022-12-03T09:33:53.151Z,-3.70
2022-12-03T09:36:19.951Z,-3.60
2022-12-03T09:38:48.227Z,-3.60
2022-12-03T09:41:15.322Z,-3.50
2022-12-03T09:46:30.306Z,-3.60
2022-12-03T09:48:57.355Z,-3.70
2022-12-03T09:51:26.402Z,-3.70
2022-12-03T09:53:53.171Z,-3.70
2022-12-03T09:56:22.022Z,-3.60
2022-12-03T09:58:49.646Z,-6.50
2022-12-03T10:01:16.646Z,-3.60
2022-12-03T10:03:45.092Z,-3.60
2022-12-03T10:06:14.479Z,-3.50
2022-12-03T10:08:42.425Z,-3.40
2022-12-03T10:11:09.172Z,-3.30
2022-12-03T10:13:37.314Z,-3.50
2022-12-03T10:16:04.247Z,-3.30
2022-12-03T10:18:38.242Z,-3.60
2022-12-03T10:21:14.188Z,-3.60
2022-12-03T10:23:41.045Z,-3.60
2022-12-03T10:26:07.730Z,-3.60
2022-12-03T10:28:35.769Z,-3.60
2022-12-03T10:31:03.729Z,-3.60
2022-12-03T10:33:37.781Z,-3.60
2022-12-03T10:36:15.109Z,-3.60
2022-12-03T10:38:41.999Z,-3.50
2022-12-03T10:41:22.373Z,-3.50
2022-12-03T10:43:49.213Z,-3.50
2022-12-03T10:46:18.331Z,-3.50
2022-12-03T10:48:45.301Z,-3.50
2022-12-03T10:51:18.267Z,-3.60
2022-12-03T10:53:45.128Z,-3.70
2022-12-03T10:56:14.916Z,-3.80
2022-12-03T10:58:41.870Z,-4.00
2022-12-03T11:01:16.077Z,-4.00
2022-12-03T11:03:43.036Z,-4.00
2022-12-03T11:06:14.731Z,-3.90
2022-12-03T11:08:42.885Z,-3.90
2022-12-03T11:11:20.652Z,-4.00
2022-12-03T11:13:49.114Z,-4.10
2022-12-03T11:16:35.782Z,-4.10
2022-12-03T11:19:03.043Z,-4.20
2022-12-03T11:21:30.435Z,-4.10
2022-12-03T11:24:00.236Z,-4.10
2022-12-03T11:26:26.920Z,-4.00
2022-12-03T11:28:54.949Z,-4.10
2022-12-03T11:31:40.867Z,-4.10
2022-12-03T11:34:13.608Z,-4.20
2022-12-03T11:37:02.006Z,-4.20
2022-12-03T11:39:52.955Z,-4.20
2022-12-03T11:42:25.814Z,-4.20
2022-12-03T11:45:04.824Z,-4.20
2022-12-03T11:47:31.571Z,-4.10
2022-12-03T11:49:58.409Z,-4.10
2022-12-03T11:52:25.171Z,-4.10
2022-12-03T11:54:53.853Z,-4.20
2022-12-03T11:57:32.015Z,-4.10
2022-12-03T12:00:07.325Z,-4.10
2022-12-03T12:02:34.238Z,-4.10
2022-12-03T12:05:18.253Z,-4.10
2022-12-03T12:07:48.554Z,-4.00
2022-12-03T12:10:39.268Z,-4.10
2022-12-03T12:13:06.121Z,-4.00
2022-12-03T12:15:34.415Z,-4.00
2022-12-03T12:18:20.175Z,-3.20
2022-12-03T12:20:47.021Z,-4.10
2022-12-03T12:23:28.329Z,-4.00
2022-12-03T12:26:05.779Z,-4.10
2022-12-03T12:28:32.518Z,-4.20
2022-12-03T12:30:59.478Z,-4.20
2022-12-03T12:33:26.761Z,-4.30
2022-12-03T12:35:53.724Z,-4.30
2022-12-03T12:38:21.297Z,-4.30
2022-12-03T12:40:49.441Z,-4.30
2022-12-03T12:43:23.466Z,-4.30
2022-12-03T12:45:52.383Z,-4.30
2022-12-03T12:48:25.311Z,-4.40
2022-12-03T12:51:12.389Z,-4.40
2022-12-03T12:53:40.003Z,-4.40
2022-12-03T12:56:11.340Z,-4.50
2022-12-03T12:58:38.055Z,-4.50
2022-12-03T13:01:07.651Z,-4.50
2022-12-03T13:03:36.935Z,-4.60
2022-12-03T13:06:03.987Z,-4.60
2022-12-03T13:08:32.101Z,-4.60
2022-12-03T13:10:59.647Z,-4.60
2022-12-03T13:13:43.386Z,-4.60
2022-12-03T13:16:26.381Z,-4.70
2022-12-03T13:18:54.047Z,-4.70
2022-12-03T13:21:23.595Z,-4.70
2022-12-03T13:23:51.508Z,-4.80
2022-12-03T13:26:37.724Z,-4.80
2022-12-03T13:29:15.765Z,-4.90
2022-12-03T13:31:48.779Z,-4.80
2022-12-03T13:34:22.472Z,-4.80
2022-12-03T13:36:57.008Z,-4.80
2022-12-03T13:39:24.974Z,-4.90
2022-12-03T13:42:10.437Z,-4.90
2022-12-03T13:44:41.484Z,-5.00
2022-12-03T13:47:15.965Z,-4.90
2022-12-03T13:49:47.623Z,-5.00
2022-12-03T13:52:16.268Z,-5.00
2022-12-03T13:54:43.027Z,-4.00
2022-12-03T13:57:09.788Z,-4.90
2022-12-03T13:59:36.750Z,-4.90
2022-12-03T14:02:03.627Z,-5.00
2022-12-03T14:04:30.401Z,-5.00
2022-12-03T14:06:57.157Z,-5.30
2022-12-03T14:09:23.957Z,-4.90
2022-12-03T14:12:09.360Z,-4.90
2022-12-03T14:14:36.149Z,-4.90
2022-12-03T14:17:04.682Z,-5.00
2022-12-03T14:19:31.511Z,-4.90
2022-12-03T14:21:58.385Z,-4.70
2022-12-03T14:24:25.194Z,-5.00
2022-12-03T14:26:51.902Z,-5.10
2022-12-03T14:29:18.701Z,-5.30
2022-12-03T14:31:45.582Z,-5.20
2022-12-03T14:34:12.406Z,-5.20
2022-12-03T14:36:39.535Z,-5.20
2022-12-03T14:39:08.418Z,-5.10
2022-12-03T14:41:54.004Z,-5.10
2022-12-03T14:44:23.861Z,-5.10
2022-12-03T14:46:56.592Z,-4.70
2022-12-03T14:49:24.011Z,-5.10
2022-12-03T14:51:50.780Z,-5.10
2022-12-03T14:54:17.540Z,-2.90
2022-12-03T14:56:44.342Z,-5.00
2022-12-03T14:59:11.098Z,-5.00
2022-12-03T15:01:37.931Z,-5.00
2022-12-03T15:04:04.971Z,-5.00
2022-12-03T15:06:31.862Z,-5.00
2022-12-03T15:08:58.625Z,-5.00
2022-12-03T15:11:25.334Z,-5.00
2022-12-03T15:13:52.124Z,-4.90
2022-12-03T15:16:19.048Z,-5.00
2022-12-03T15:18:45.969Z,-5.00
2022-12-03T15:21:12.807Z,-4.70
2022-12-03T15:23:39.565Z,-5.10
2022-12-03T15:26:06.486Z,-5.10
2022-12-03T15:28:33.258Z,-5.10
2022-12-03T15:31:00.144Z,-5.10
2022-12-03T15:33:26.947Z,-5.10
2022-12-03T15:35:53.744Z,-5.10
2022-12-03T15:38:20.637Z,-5.00
2022-12-03T15:40:47.394Z,-5.00
2022-12-03T15:43:14.247Z,-5.10
2022-12-03T15:45:41.205Z,-5.00
2022-12-03T15:48:08.059Z,-5.00
2022-12-03T15:50:39.905Z,-5.00
2022-12-03T15:53:07.009Z,-5.00
2022-12-03T15:55:33.774Z,-5.00
2022-12-03T15:58:00.543Z,-5.00
2022-12-03T16:00:27.318Z,-5.00
2022-12-03T16:02:54.158Z,-5.00
2022-12-03T16:05:21.000Z,-5.00
2022-12-03T16:07:47.800Z,-5.00
2022-12-03T16:10:16.789Z,-5.00
2022-12-03T16:12:43.525Z,-5.00
2022-12-03T16:15:10.374Z,-4.90
2022-12-03T16:17:37.126Z,-5.00
2022-12-03T16:20:04.456Z,-5.00
2022-12-03T16:22:31.575Z,-5.00
2022-12-03T16:24:58.382Z,-5.00
2022-12-03T16:27:26.082Z,-5.00
2022-12-03T16:29:53.346Z,-4.90
2022-12-03T16:32:20.380Z,-4.90
2022-12-03T16:34:47.175Z,-4.90
2022-12-03T16:37:13.940Z,-4.80
2022-12-03T16:39:40.758Z,-4.90
2022-12-03T16:42:13.576Z,-4.90
2022-12-03T16:44:54.943Z,-4.90
2022-12-03T16:47:22.716Z,-4.90
2022-12-03T16:49:50.025Z,-4.80
2022-12-03T16:52:16.910Z,-4.90
2022-12-03T16:54:43.656Z,-4.90
2022-12-03T16:57:10.414Z,-4.80
2022-12-03T16:59:37.215Z,-4.90
2022-12-03T17:02:04.113Z,-4.90
2022-12-03T17:04:31.001Z,-4.90
2022-12-03T17:06:57.708Z,-4.80
2022-12-03T17:09:24.702Z,-4.80
2022-12-03T17:11:51.458Z,-4.80
2022-12-03T17:14:18.227Z,-4.90
2022-12-03T17:16:45.127Z,-4.90
2022-12-03T17:19:11.829Z,-4.90
2022-12-03T17:21:38.686Z,-4.90
2022-12-03T17:24:05.499Z,-5.00
2022-12-03T17:26:32.259Z,-5.00
2022-12-03T17:28:59.003Z,-5.00
2022-12-03T17:31:25.795Z,-5.00
2022-12-03T17:33:57.496Z,-4.90
2022-12-03T17:36:25.606Z,-4.90
2022-12-03T17:38:52.458Z,-5.00
2022-12-03T17:41:19.275Z,-4.90
2022-12-03T17:43:46.035Z,-5.00
2022-12-03T17:46:12.812Z,-4.40
2022-12-03T17:48:40.740Z,-5.10
2022-12-03T17:51:07.536Z,-5.10
2022-12-03T17:53:34.357Z,-5.10
2022-12-03T17:56:01.161Z,-5.10
2022-12-03T17:58:28.649Z,-5.10
2022-12-03T18:01:00.471Z,-5.20
2022-12-03T18:05:56.348Z,-5.20
2022-12-03T18:08:23.337Z,-5.20
2022-12-03T18:10:50.369Z,-5.20
2022-12-03T18:13:17.111Z,-5.20
2022-12-03T18:15:44.089Z,-5.20
2022-12-03T18:18:10.942Z,-5.20
2022-12-03T18:20:37.897Z,-5.30
2022-12-03T18:23:04.696Z,-5.30
2022-12-03T18:25:31.526Z,-5.30
2022-12-03T18:27:58.352Z,-3.60
2022-12-03T18:30:25.186Z,-5.40
2022-12-03T18:32:51.930Z,-5.40
2022-12-03T18:35:18.848Z,-5.40
2022-12-03T18:37:45.743Z,-5.40
2022-12-03T18:40:20.322Z,-5.50
2022-12-03T18:42:47.262Z,-5.50
2022-12-03T18:45:15.083Z,-5.50
2022-12-03T18:47:42.261Z,-5.50
2022-12-03T18:50:09.798Z,-5.50
2022-12-03T18:52:36.633Z,-5.50
2022-12-03T18:55:03.559Z,-5.50
2022-12-03T18:57:30.326Z,-5.50
2022-12-03T18:59:57.445Z,-5.40
2022-12-03T19:03:01.763Z,-5.40
2022-12-03T19:05:11.463Z,-5.30
2022-12-03T19:07:38.414Z,-5.40
2022-12-03T19:10:05.397Z,-5.30
2022-12-03T19:12:32.702Z,-5.30
2022-12-03T19:14:59.492Z,-5.20
2022-12-03T19:17:27.281Z,-5.20
2022-12-03T19:19:54.700Z,-5.20
2022-12-03T19:22:21.956Z,-4.50
2022-12-03T19:24:48.754Z,-5.00
2022-12-03T19:27:15.659Z,-5.10
2022-12-03T19:29:42.662Z,-5.00
2022-12-03T19:32:09.487Z,-5.00
2022-12-03T19:34:36.344Z,-4.90
2022-12-03T19:37:03.109Z,-4.90
2022-12-03T19:39:29.912Z,-4.90
2022-12-03T19:41:56.722Z,-4.90
2022-12-03T19:44:23.559Z,-4.80
2022-12-03T19:46:50.504Z,-4.90
2022-12-03T19:49:20.993Z,-4.80
2022-12-03T19:51:47.874Z,-4.60
2022-12-03T19:54:15.011Z,-4.80
2022-12-03T19:56:41.918Z,-4.50
2022-12-03T20:01:36.635Z,-4.80
2022-12-03T20:04:04.096Z,-4.80
2022-12-03T20:06:31.971Z,-4.70
2022-12-03T20:08:59.949Z,-4.70
2022-12-03T20:11:28.054Z,-4.60
2022-12-03T20:14:01.734Z,-4.50
2022-12-03T20:16:29.214Z,-4.50
2022-12-03T20:18:57.206Z,-4.40
2022-12-03T20:21:24.800Z,-4.40
2022-12-03T20:23:51.590Z,-4.30
2022-12-03T20:26:19.439Z,-4.30
2022-12-03T20:28:48.148Z,-4.30
2022-12-03T20:31:18.782Z,-4.30
2022-12-03T20:33:48.276Z,-4.30
2022-12-03T20:36:16.482Z,-4.30
2022-12-03T20:38:43.420Z,-4.30
2022-12-03T20:41:11.758Z,-4.20
2022-12-03T20:43:38.751Z,-4.20
2022-12-03T20:46:13.362Z,-4.20
2022-12-03T20:48:40.615Z,-4.10
2022-12-03T20:51:08.561Z,-4.10
2022-12-03T20:53:35.747Z,-4.10
2022-12-03T20:56:02.882Z,-4.10
2022-12-03T20:58:30.358Z,-4.10
2022-12-03T21:01:11.075Z,-4.10
2022-12-03T21:03:40.834Z,-4.00
2022-12-03T21:06:08.017Z,-4.00
2022-12-03T21:08:41.637Z,-4.00
2022-12-03T21:11:13.132Z,-4.00
2022-12-03T21:13:44.086Z,-3.90
2022-12-03T21:16:13.514Z,-3.90
2022-12-03T21:18:40.487Z,-3.90
2022-12-03T21:21:07.556Z,-3.90
2022-12-03T21:23:34.884Z,-3.80
2022-12-03T21:26:05.622Z,-3.20
2022-12-03T21:28:32.496Z,-3.80
2022-12-03T21:31:00.219Z,-3.80
2022-12-03T21:33:27.230Z,-3.80
2022-12-03T21:35:54.540Z,-3.80
2022-12-03T21:38:21.297Z,-3.70
2022-12-03T21:40:48.407Z,-3.70
2022-12-03T21:43:15.208Z,-3.70
2022-12-03T21:45:42.351Z,-3.70
2022-12-03T21:48:09.507Z,-3.80
2022-12-03T21:50:36.588Z,-3.70
2022-12-03T21:53:03.701Z,-3.70
2022-12-03T21:55:30.602Z,-3.70
2022-12-03T21:57:57.366Z,-3.70
2022-12-03T22:00:24.159Z,-5.90
2022-12-03T22:02:52.457Z,-3.60
2022-12-03T22:05:19.307Z,-3.70
2022-12-03T22:07:46.115Z,-3.70
2022-12-03T22:10:12.936Z,-3.60
2022-12-03T22:12:41.917Z,-3.60
2022-12-03T22:15:13.475Z,-3.50
2022-12-03T22:17:45.144Z,-3.60
2022-12-03T22:20:12.159Z,-3.50
2022-12-03T22:22:39.021Z,-3.40
2022-12-03T22:25:05.843Z,-3.30
2022-12-03T22:27:32.664Z,-3.40
2022-12-03T22:29:59.409Z,-3.40
2022-12-03T22:32:26.262Z,-3.50
2022-12-03T22:34:53.120Z,-3.40
2022-12-03T22:37:20.133Z,-3.40
2022-12-03T22:39:46.892Z,-3.40
2022-12-03T22:42:13.688Z,-3.30
2022-12-03T22:44:40.486Z,-3.30
2022-12-03T22:47:07.261Z,-3.30
2022-12-03T22:49:34.088Z,-3.30
2022-12-03T22:52:00.935Z,-3.30
2022-12-03T22:54:27.740Z,-3.20
2022-12-03T22:56:54.494Z,-3.30
2022-12-03T22:59:21.295Z,-3.30
2022-12-03T23:01:48.146Z,-3.20
2022-12-03T23:04:14.970Z,-3.20
2022-12-03T23:06:43.596Z,-3.10
2022-12-03T23:09:10.377Z,-3.10
2022-12-03T23:11:37.988Z,-3.20
2022-12-03T23:14:04.754Z,-3.10
2022-12-03T23:16:32.652Z,-3.10
2022-12-03T23:19:00.440Z,-3.10
2022-12-03T23:21:30.472Z,-3.10
2022-12-03T23:24:01.190Z,-3.10
2022-12-03T23:26:28.445Z,-3.00
2022-12-03T23:28:55.500Z,-3.00
2022-12-03T23:31:26.611Z,-3.00
2022-12-03T23:33:53.911Z,-3.00
2022-12-03T23:36:21.183Z,-3.00
2022-12-03T23:38:48.007Z,-3.00
2022-12-03T23:41:16.066Z,-2.90
2022-12-03T23:43:43.344Z,-2.90
2022-12-03T23:46:11.629Z,-2.80
2022-12-03T23:48:38.474Z,-2.80
2022-12-03T23:51:06.452Z,-2.80
2022-12-03T23:53:33.266Z,-2.80
2022-12-03T23:56:00.089Z,-2.80
2022-12-03T23:58:27.028Z,-2.80
